Time;durP1;ratioP1;P1;durP2;ratioP2;P2;SDS_P1;SDS_P2;PMS_P1;PMS_P2;Temp;Humidity;BMP_temperature;BMP_pressure;BME280_temperature;BME280_humidity;BME280_pressure;Samples;Min_cycle;Max_cycle;Signal;HPM_P1;HPM_P2
2021/08/08 12:37:08;;;;;;;7.30;4.85;;;23.50;84.40;;;;;;5056344;27;1717786;-91
2021/08/08 12:39:35;;;;;;;9.50;5.80;;;23.70;85.30;;;;;;5082127;28;20074;-93
2021/08/08 12:42:02;;;;;;;9.05;5.75;;;23.90;84.50;;;;;;5091922;28;20036;-94
2021/08/08 12:44:33;;;;;;;6.47;5.30;;;24.20;83.40;;;;;;5077403;28;20540;-95
2021/08/08 12:47:02;;;;;;;7.60;5.63;;;24.50;82.00;;;;;;5073853;28;20059;-94
2021/08/08 12:49:49;;;;;;;6.60;5.50;;;24.70;81.10;;;;;;5089443;28;20033;-96
2021/08/08 12:52:16;;;;;;;8.48;5.57;;;24.90;81.20;;;;;;5074458;28;20063;-95
2021/08/08 12:54:45;;;;;;;8.00;5.07;;;25.10;79.40;;;;;;5075797;28;20065;-94
2021/08/08 12:57:26;;;;;;;;;;;;;;;;;;;;;
2021/08/08 13:00:14;;;;;;;10.00;5.38;;;25.20;78.30;;;;;;5098609;28;20036;-96
2021/08/08 13:03:10;;;;;;;7.32;5.63;;;25.30;78.10;;;;;;5103144;28;20032;-96
2021/08/08 13:05:57;;;;;;;9.80;6.22;;;25.40;77.30;;;;;;5089382;28;20043;-96
2021/08/08 13:08:31;;;;;;;7.45;6.25;;;25.50;77.60;;;;;;5093620;28;20095;-91
2021/08/08 13:10:59;;;;;;;10.88;6.50;;;25.50;77.40;;;;;;5073807;28;20036;-89
2021/08/08 13:13:35;;;;;;;11.88;6.85;;;25.50;77.90;;;;;;5104326;28;20039;-89
2021/08/08 13:16:01;;;;;;;9.00;5.38;;;25.60;78.40;;;;;;5110706;28;20036;-90
2021/08/08 13:18:27;;;;;;;11.55;6.78;;;25.60;77.60;;;;;;5092317;28;20036;-89
2021/08/08 13:20:53;;;;;;;50.08;8.15;;;25.70;77.80;;;;;;5092131;28;20023;-90
2021/08/08 13:23:19;;;;;;;10.10;6.45;;;25.60;77.20;;;;;;5107648;28;20705;-91
2021/08/08 13:25:48;;;;;;;11.60;6.72;;;25.70;77.00;;;;;;5109846;28;20035;-95
2021/08/08 13:28:26;;;;;;;8.95;6.20;;;25.70;76.70;;;;;;5095774;28;20059;-92
2021/08/08 13:30:55;;;;;;;12.75;7.03;;;25.70;76.90;;;;;;5096435;28;20130;-92
2021/08/08 13:33:22;;;;;;;9.45;6.30;;;25.70;76.80;;;;;;5094289;28;20031;-94
2021/08/08 13:35:48;;;;;;;9.70;6.47;;;25.70;76.60;;;;;;5110764;28;20130;-86
2021/08/08 13:38:14;;;;;;;10.25;6.40;;;25.70;76.70;;;;;;5110815;28;20063;-86
2021/08/08 13:40:46;;;;;;;12.15;7.20;;;25.70;76.60;;;;;;5112933;28;20031;-95
2021/08/08 13:43:18;;;;;;;8.77;6.22;;;25.80;76.70;;;;;;5096384;28;20027;-91
2021/08/08 13:45:47;;;;;;;11.25;6.57;;;25.70;78.20;;;;;;5102197;28;20046;-92
2021/08/08 13:48:13;;;;;;;12.30;6.70;;;25.80;78.20;;;;;;5087381;28;20031;-92
2021/08/08 13:50:42;;;;;;;10.60;6.65;;;25.80;77.80;;;;;;5097975;28;20077;-90
2021/08/08 13:53:11;;;;;;;9.73;6.63;;;25.80;76.90;;;;;;5090081;28;20032;-90
2021/08/08 13:55:40;;;;;;;9.75;6.53;;;25.80;77.40;;;;;;5092196;28;20043;-93
2021/08/08 13:58:06;;;;;;;12.18;6.13;;;25.80;77.50;;;;;;5081308;28;20039;-94
2021/08/08 14:00:33;;;;;;;12.30;6.78;;;25.80;77.30;;;;;;5061759;28;20119;-93
2021/08/08 14:02:59;;;;;;;10.63;6.80;;;25.80;76.90;;;;;;5058403;28;20024;-91
2021/08/08 14:05:25;;;;;;;10.95;6.47;;;25.80;78.00;;;;;;5081114;28;20038;-91
2021/08/08 14:07:51;;;;;;;12.82;6.47;;;25.80;77.70;;;;;;5085043;28;20466;-94
2021/08/08 14:10:17;;;;;;;10.43;6.65;;;25.80;78.60;;;;;;5082972;28;20048;-93
2021/08/08 14:12:46;;;;;;;15.18;7.38;;;25.90;79.70;;;;;;5098114;28;20046;-90
2021/08/08 14:15:12;;;;;;;11.27;7.50;;;25.80;78.10;;;;;;5095234;28;20028;-89
2021/08/08 14:17:40;;;;;;;10.50;6.78;;;25.80;78.60;;;;;;5098589;28;20032;-93
2021/08/08 14:20:07;;;;;;;13.10;7.20;;;25.90;77.80;;;;;;5102607;28;20035;-93
2021/08/08 14:22:59;;;;;;;9.63;7.63;;;25.90;77.90;;;;;;5091206;28;20040;-95
2021/08/08 14:25:28;;;;;;;12.98;7.15;;;25.90;78.00;;;;;;5066204;28;20037;-90
2021/08/08 14:27:57;;;;;;;13.20;6.65;;;25.90;77.80;;;;;;5095460;28;20050;-92
2021/08/08 14:30:29;;;;;;;12.90;6.82;;;25.90;78.60;;;;;;5080943;28;20034;-94
2021/08/08 14:32:55;;;;;;;11.25;6.05;;;25.90;78.40;;;;;;5083567;28;20062;-96
2021/08/08 14:35:31;;;;;;;10.77;6.63;;;25.90;79.10;;;;;;5101044;28;20052;-95
2021/08/08 14:40:53;;;;;;;12.50;6.75;;;25.90;77.00;;;;;;4981304;28;20057;-95
2021/08/08 14:43:32;;;;;;;11.77;7.10;;;25.90;77.10;;;;;;4979757;28;20062;-94
2021/08/08 14:46:11;;;;;;;12.80;6.43;;;25.90;78.20;;;;;;4982891;28;20048;-94
2021/08/08 14:48:44;;;;;;;11.63;6.70;;;26.00;78.30;;;;;;4995122;28;20045;-90
2021/08/08 14:51:13;;;;;;;12.27;6.85;;;25.90;77.50;;;;;;5012783;28;20125;-89
2021/08/08 14:53:39;;;;;;;9.82;6.18;;;26.00;78.20;;;;;;4980232;28;20030;-90
2021/08/08 14:56:08;;;;;;;14.40;6.30;;;26.00;77.40;;;;;;4997931;28;20038;-89
2021/08/08 14:58:34;;;;;;;10.35;6.15;;;26.00;77.20;;;;;;5009186;28;20067;-87
2021/08/08 15:01:03;;;;;;;10.20;7.03;;;26.00;77.60;;;;;;4995285;28;20034;-94
2021/08/08 15:03:50;;;;;;;11.82;6.78;;;26.00;77.70;;;;;;5009922;28;20046;-90
2021/08/08 15:06:16;;;;;;;12.82;6.72;;;26.00;77.60;;;;;;4972112;28;20094;-93
2021/08/08 15:08:42;;;;;;;10.95;6.70;;;26.00;77.90;;;;;;4988527;28;20038;-89
2021/08/08 15:11:08;;;;;;;13.70;6.80;;;26.00;78.70;;;;;;4996387;28;20084;-91
2021/08/08 15:13:34;;;;;;;11.45;6.88;;;26.00;78.20;;;;;;4963191;28;20026;-89
2021/08/08 15:16:01;;;;;;;10.00;6.35;;;26.00;78.40;;;;;;4994372;28;20500;-90
2021/08/08 15:18:27;;;;;;;9.32;6.70;;;26.00;78.80;;;;;;4989919;28;20505;-91
2021/08/08 15:20:53;;;;;;;10.65;7.15;;;26.00;78.50;;;;;;4958249;28;20037;-88
2021/08/08 15:23:19;;;;;;;13.45;6.50;;;26.00;78.70;;;;;;4996112;28;20038;-88
2021/08/08 15:25:44;;;;;;;10.45;6.13;;;26.00;78.80;;;;;;4982321;28;20080;-93
2021/08/08 15:28:10;;;;;;;15.48;6.80;;;26.10;78.20;;;;;;4979936;28;20044;-85
2021/08/08 15:30:36;;;;;;;13.13;7.35;;;26.00;78.70;;;;;;4976117;28;20042;-85
2021/08/08 15:33:02;;;;;;;9.02;6.97;;;26.10;79.10;;;;;;4979102;28;20040;-86
2021/08/08 15:35:28;;;;;;;12.35;7.18;;;26.10;77.70;;;;;;5008699;28;20382;-89
2021/08/08 15:37:54;;;;;;;12.38;6.80;;;26.00;78.20;;;;;;5010670;28;20042;-87
2021/08/08 15:40:20;;;;;;;16.38;8.05;;;26.10;79.60;;;;;;4995739;28;20050;-88
2021/08/08 15:42:46;;;;;;;12.70;7.53;;;26.10;80.00;;;;;;4978868;28;20034;-91
2021/08/08 15:45:12;;;;;;;12.77;7.47;;;26.10;78.20;;;;;;4994601;28;20034;-91
2021/08/08 15:47:39;;;;;;;10.02;7.63;;;26.10;77.70;;;;;;4975793;28;20141;-88
2021/08/08 15:50:07;;;;;;;15.00;7.25;;;26.00;78.20;;;;;;4976968;28;20125;-87
2021/08/08 15:52:33;;;;;;;10.80;7.30;;;26.10;78.80;;;;;;4993812;28;20042;-89
2021/08/08 15:54:59;;;;;;;12.48;7.57;;;26.00;79.80;;;;;;4992968;28;20042;-87
2021/08/08 15:57:28;;;;;;;14.40;8.05;;;26.00;79.70;;;;;;4995819;28;20034;-87
2021/08/08 15:59:54;;;;;;;11.07;7.10;;;26.10;79.90;;;;;;4973661;28;20075;-85
2021/08/08 16:02:20;;;;;;;10.55;7.50;;;26.10;78.40;;;;;;4974199;28;20628;-86
2021/08/08 16:04:47;;;;;;;14.32;7.97;;;26.10;78.60;;;;;;4974814;28;20054;-89
2021/08/08 16:07:13;;;;;;;12.02;7.93;;;26.10;79.50;;;;;;4970738;28;20061;-88
2021/08/08 16:09:39;;;;;;;12.13;7.68;;;26.10;79.60;;;;;;4992694;28;20026;-87
2021/08/08 16:12:05;;;;;;;11.68;7.18;;;26.10;78.50;;;;;;4976157;28;20053;-89
2021/08/08 16:14:33;;;;;;;12.05;7.05;;;26.10;79.40;;;;;;4981233;28;20062;-89
2021/08/08 16:17:01;;;;;;;11.18;7.57;;;26.10;80.30;;;;;;4995214;28;20084;-88
2021/08/08 16:19:27;;;;;;;15.40;7.60;;;26.10;78.60;;;;;;4993923;28;20023;-94
2021/08/08 16:21:54;;;;;;;13.00;7.47;;;26.10;78.40;;;;;;4973874;28;20453;-87
2021/08/08 16:24:20;;;;;;;13.18;7.10;;;26.10;79.30;;;;;;4992623;28;20082;-90
2021/08/08 16:26:46;;;;;;;11.60;7.65;;;26.10;79.10;;;;;;4992693;28;20108;-86
2021/08/08 16:29:12;;;;;;;10.90;7.50;;;26.10;79.20;;;;;;4975538;28;20501;-89
2021/08/08 16:31:39;;;;;;;8.55;7.50;;;26.10;78.80;;;;;;4959311;28;20040;-90
2021/08/08 16:34:05;;;;;;;14.90;8.75;;;26.10;78.50;;;;;;4974564;28;20034;-86
2021/08/08 16:36:31;;;;;;;14.98;8.77;;;26.10;78.50;;;;;;4983345;28;20045;-87
2021/08/08 16:38:57;;;;;;;10.65;7.40;;;26.20;79.60;;;;;;4975730;28;20046;-86
2021/08/08 16:41:23;;;;;;;12.27;7.95;;;26.10;79.40;;;;;;4991515;28;20093;-95
2021/08/08 16:43:53;;;;;;;12.63;7.72;;;26.10;79.20;;;;;;4995534;28;20030;-95
2021/08/08 16:46:19;;;;;;;11.43;7.15;;;26.10;79.00;;;;;;4978652;28;20026;-94
2021/08/08 16:48:51;;;;;;;8.52;7.35;;;26.10;78.60;;;;;;5002846;28;20038;-92
2021/08/08 16:51:17;;;;;;;15.57;8.25;;;26.10;78.50;;;;;;5002591;28;20049;-89
2021/08/08 16:53:43;;;;;;;10.55;8.02;;;26.10;78.90;;;;;;4997493;28;20039;-92
2021/08/08 16:56:09;;;;;;;9.20;7.28;;;26.10;79.10;;;;;;4977553;28;20038;-91
2021/08/08 16:58:35;;;;;;;12.05;8.30;;;26.00;79.90;;;;;;4977149;28;20035;-90
2021/08/08 17:01:02;;;;;;;14.13;7.55;;;26.10;79.50;;;;;;4968882;28;20479;-87
2021/08/08 17:03:28;;;;;;;12.98;7.95;;;26.10;79.40;;;;;;4992189;28;20468;-89
2021/08/08 17:05:56;;;;;;;14.30;7.70;;;26.10;79.50;;;;;;4998748;28;20039;-93
2021/08/08 17:08:22;;;;;;;11.05;7.75;;;26.10;79.70;;;;;;5000954;28;20133;-91
2021/08/08 17:10:48;;;;;;;14.50;7.93;;;26.10;79.40;;;;;;5005206;28;20042;-91
2021/08/08 17:13:14;;;;;;;12.15;8.15;;;26.00;79.60;;;;;;4992802;28;20169;-90
2021/08/08 17:15:45;;;;;;;14.75;9.05;;;26.00;79.90;;;;;;4993165;28;20413;-91
2021/08/08 17:18:11;;;;;;;11.93;8.98;;;25.90;79.40;;;;;;4991509;28;20045;-90
2021/08/08 17:20:37;;;;;;;12.18;8.10;;;25.90;79.50;;;;;;4992984;28;20061;-91
2021/08/08 17:23:03;;;;;;;11.00;8.15;;;25.90;79.20;;;;;;4978660;28;20032;-94
2021/08/08 17:25:29;;;;;;;12.02;8.15;;;26.00;79.10;;;;;;4984811;28;20042;-96
2021/08/08 17:27:55;;;;;;;15.45;8.20;;;25.90;79.00;;;;;;4991088;28;20022;-95
2021/08/08 17:30:25;;;;;;;16.92;12.93;;;25.90;78.80;;;;;;5053120;22;20019;-95
2021/08/08 17:32:51;;;;;;;14.95;10.00;;;25.90;79.40;;;;;;5204179;22;20094;-92
2021/08/08 17:35:17;;;;;;;21.27;9.88;;;25.90;79.80;;;;;;5325716;23;20171;-94
2021/08/08 17:37:43;;;;;;;16.33;10.13;;;25.90;79.40;;;;;;5019679;28;20037;-90
2021/08/08 17:40:18;;;;;;;11.18;8.30;;;25.90;79.40;;;;;;5033132;28;20049;-91
2021/08/08 17:42:44;;;;;;;16.00;9.38;;;25.80;79.40;;;;;;5001033;28;20034;-91
2021/08/08 17:45:10;;;;;;;13.00;9.27;;;25.80;78.80;;;;;;5006962;28;20433;-93
2021/08/08 17:47:36;;;;;;;11.60;9.43;;;25.80;79.60;;;;;;5003598;28;20077;-89
2021/08/08 17:50:02;;;;;;;14.60;10.15;;;25.80;79.80;;;;;;5027499;28;20048;-89
2021/08/08 17:52:28;;;;;;;16.15;9.88;;;25.80;79.60;;;;;;5018354;28;20029;-92
2021/08/08 17:55:02;;;;;;;13.32;8.95;;;25.80;79.70;;;;;;4993716;28;20057;-96
2021/08/08 17:57:28;;;;;;;10.25;8.50;;;25.90;79.80;;;;;;4991451;28;20062;-91
2021/08/08 17:59:55;;;;;;;19.52;9.75;;;25.90;81.60;;;;;;5004260;28;20120;-96
2021/08/08 18:02:21;;;;;;;14.05;9.68;;;25.90;81.10;;;;;;5005778;28;20043;-91
2021/08/08 18:04:48;;;;;;;14.07;9.57;;;25.90;79.70;;;;;;5035042;28;20093;-92
2021/08/08 18:07:14;;;;;;;16.13;9.57;;;25.90;79.20;;;;;;5000836;28;20041;-90
2021/08/08 18:09:41;;;;;;;17.38;11.20;;;25.90;79.80;;;;;;5001639;28;20060;-88
2021/08/08 18:12:07;;;;;;;17.30;10.93;;;25.90;80.00;;;;;;4999257;28;20061;-87
2021/08/08 18:14:33;;;;;;;15.90;10.50;;;25.80;80.50;;;;;;4996783;28;20484;-86
2021/08/08 18:17:02;;;;;;;14.88;10.30;;;25.70;80.80;;;;;;5006640;28;20042;-96
2021/08/08 18:19:37;;;;;;;15.55;10.43;;;25.70;81.00;;;;;;5002547;28;20056;-95
2021/08/08 18:22:04;;;;;;;14.35;10.18;;;25.60;81.10;;;;;;4999638;28;20539;-89
2021/08/08 18:24:30;;;;;;;13.98;10.43;;;25.50;81.20;;;;;;5036181;28;20128;-93
2021/08/08 18:26:56;;;;;;;18.77;10.90;;;25.50;81.80;;;;;;5018495;28;20047;-95
2021/08/08 18:29:22;;;;;;;15.88;9.88;;;25.50;81.70;;;;;;5000634;28;20039;-88
2021/08/08 18:31:48;;;;;;;14.65;10.55;;;25.40;81.60;;;;;;5032534;28;20041;-89
2021/08/08 18:34:14;;;;;;;15.07;11.15;;;25.40;81.20;;;;;;5025461;28;20044;-96
2021/08/08 18:36:41;;;;;;;16.38;11.15;;;25.40;81.60;;;;;;4998680;28;20393;-95
2021/08/08 18:39:07;;;;;;;21.40;13.10;;;25.40;82.40;;;;;;5016601;28;20029;-91
2021/08/08 18:41:38;;;;;;;21.77;14.27;;;25.50;82.60;;;;;;5010792;28;20034;-96
2021/08/08 18:44:05;;;;;;;22.63;12.52;;;25.50;82.70;;;;;;4997727;28;20040;-90
2021/08/08 18:46:33;;;;;;;18.27;12.18;;;25.50;82.70;;;;;;5326992;23;20031;-96
2021/08/08 18:48:59;;;;;;;21.33;11.93;;;25.30;82.90;;;;;;5031646;28;20098;-93
2021/08/08 18:57:06;;;;;;;14.07;11.30;;;25.40;82.40;;;;;;5054371;28;20064;-89
2021/08/08 20:24:40;;;;;;;18.45;10.70;;;25.70;83.10;;;;;;5088536;27;20395;-84
2021/08/08 20:27:06;;;;;;;15.88;11.68;;;26.10;82.80;;;;;;5087592;28;20445;-79
2021/08/08 20:29:35;;;;;;;13.30;10.40;;;26.30;81.70;;;;;;5087498;28;20025;-89
2021/08/08 20:32:05;;;;;;;14.65;10.55;;;26.40;80.50;;;;;;5086422;28;20032;-89
2021/08/08 20:34:31;;;;;;;15.52;11.05;;;26.60;79.50;;;;;;5090545;28;20449;-89
2021/08/08 20:36:58;;;;;;;17.83;11.55;;;26.80;78.70;;;;;;5083805;28;20035;-86
2021/08/08 20:39:25;;;;;;;13.40;10.77;;;26.90;78.10;;;;;;5083812;28;20082;-85
2021/08/08 20:41:55;;;;;;;15.73;10.25;;;26.90;77.70;;;;;;5072828;28;20561;-89
2021/08/08 20:44:21;;;;;;;12.65;10.35;;;27.00;77.70;;;;;;5076199;28;20044;-86
2021/08/08 20:46:48;;;;;;;13.45;10.30;;;27.10;77.60;;;;;;5082922;28;20035;-84
2021/08/08 20:49:16;;;;;;;16.38;10.80;;;27.20;77.30;;;;;;5088096;28;20033;-81
2021/08/08 20:51:43;;;;;;;14.80;10.88;;;27.30;76.90;;;;;;5089071;28;20157;-81
2021/08/08 20:54:11;;;;;;;15.30;10.63;;;27.30;76.50;;;;;;5090286;28;20066;-82
2021/08/08 20:56:51;;;;;;;15.48;10.82;;;27.30;76.40;;;;;;5089874;28;20431;-83
2021/08/08 20:59:19;;;;;;;14.90;11.48;;;27.30;76.50;;;;;;5088722;28;20044;-85
2021/08/08 21:01:48;;;;;;;19.08;10.98;;;27.40;76.80;;;;;;5088149;28;20498;-93
2021/08/08 21:04:14;;;;;;;17.77;10.85;;;27.40;76.90;;;;;;5085957;28;20028;-89
2021/08/08 21:06:40;;;;;;;15.60;11.90;;;27.40;76.80;;;;;;5089267;28;20127;-88
2021/08/08 21:09:06;;;;;;;18.55;11.48;;;27.50;76.00;;;;;;5071701;28;20036;-85
2021/08/08 21:11:32;;;;;;;16.77;13.52;;;27.50;75.30;;;;;;5088840;28;20028;-88
2021/08/08 21:13:58;;;;;;;21.10;13.48;;;27.40;74.90;;;;;;5090600;28;20040;-90
2021/08/08 21:16:24;;;;;;;18.00;12.52;;;27.40;74.70;;;;;;5089435;28;20040;-88
2021/08/08 21:18:50;;;;;;;21.13;12.27;;;27.40;74.60;;;;;;5082112;28;20033;-87
2021/08/08 21:21:16;;;;;;;17.45;12.75;;;27.30;74.50;;;;;;5073761;28;20040;-88
2021/08/08 21:23:42;;;;;;;18.50;12.63;;;27.30;74.30;;;;;;5072628;28;20053;-83
2021/08/08 21:26:09;;;;;;;19.15;12.23;;;27.40;74.80;;;;;;5067067;28;20083;-83
2021/08/08 21:28:35;;;;;;;15.25;11.90;;;27.30;74.90;;;;;;5068588;28;20033;-83
2021/08/08 21:31:01;;;;;;;17.55;12.00;;;27.40;75.10;;;;;;5084111;28;20136;-82
2021/08/08 21:33:27;;;;;;;17.67;11.65;;;27.30;75.10;;;;;;5083874;28;20045;-83
2021/08/08 21:35:53;;;;;;;19.25;11.88;;;27.30;75.90;;;;;;5055367;28;20056;-85
2021/08/08 21:38:19;;;;;;;17.65;11.10;;;27.30;75.30;;;;;;5056114;28;20090;-86
2021/08/08 21:40:46;;;;;;;18.40;11.35;;;27.40;75.60;;;;;;5075151;28;20032;-88
2021/08/08 21:43:11;;;;;;;18.85;11.07;;;27.40;75.60;;;;;;5076080;28;20044;-91
2021/08/08 21:45:37;;;;;;;19.73;11.95;;;27.40;75.60;;;;;;5070387;28;20112;-86
2021/08/08 21:48:04;;;;;;;25.15;11.32;;;27.40;75.50;;;;;;5068697;28;20036;-86
2021/08/08 21:50:30;;;;;;;16.60;10.82;;;27.40;75.40;;;;;;5075068;28;20123;-88
2021/08/08 21:52:56;;;;;;;18.75;10.77;;;27.40;75.50;;;;;;5073981;28;20067;-85
2021/08/08 21:55:22;;;;;;;16.88;11.13;;;27.40;75.40;;;;;;5073385;28;20166;-85
2021/08/08 21:57:48;;;;;;;16.05;11.00;;;27.50;75.30;;;;;;5074539;28;20082;-85
2021/08/08 22:00:15;;;;;;;17.05;11.48;;;27.50;74.90;;;;;;5072986;28;20628;-85
2021/08/08 22:02:41;;;;;;;24.60;12.13;;;27.50;74.60;;;;;;5064523;28;20047;-86
2021/08/08 22:05:08;;;;;;;21.92;11.48;;;27.40;74.30;;;;;;5074743;28;20063;-87
2021/08/08 22:07:34;;;;;;;13.50;11.02;;;27.40;74.20;;;;;;5056243;28;20410;-87
2021/08/08 22:10:00;;;;;;;15.40;11.10;;;27.40;74.50;;;;;;5072812;28;20036;-85
2021/08/08 22:12:26;;;;;;;16.67;10.80;;;27.40;74.70;;;;;;5072519;28;20024;-85
2021/08/08 22:14:52;;;;;;;15.38;11.40;;;27.40;74.80;;;;;;5073869;28;20109;-84
2021/08/08 22:17:18;;;;;;;15.68;12.07;;;27.40;74.70;;;;;;5074951;28;20520;-85
2021/08/08 22:19:44;;;;;;;20.10;12.68;;;27.40;74.40;;;;;;5075619;28;20045;-86
2021/08/08 22:22:10;;;;;;;17.50;12.45;;;27.40;74.30;;;;;;5073433;28;20419;-85
2021/08/08 22:24:36;;;;;;;18.55;12.13;;;27.40;74.30;;;;;;5074076;28;20121;-88
2021/08/08 22:27:02;;;;;;;23.10;14.18;;;27.30;74.20;;;;;;5073798;28;20501;-88
2021/08/08 22:29:28;;;;;;;19.52;13.10;;;27.30;74.20;;;;;;5074891;28;20043;-88
2021/08/08 22:31:54;;;;;;;21.67;14.10;;;27.30;74.20;;;;;;5075823;28;20032;-89
2021/08/08 22:34:20;;;;;;;23.05;14.88;;;27.30;74.00;;;;;;5081509;28;20036;-87
2021/08/08 22:36:46;;;;;;;21.95;15.15;;;27.20;73.70;;;;;;5078461;28;20119;-90
2021/08/08 22:39:12;;;;;;;21.50;15.10;;;27.20;73.40;;;;;;5074052;28;20396;-89
2021/08/08 22:41:38;;;;;;;21.83;14.27;;;27.20;73.60;;;;;;5074197;28;20040;-89
2021/08/08 22:44:04;;;;;;;20.98;13.80;;;27.10;73.70;;;;;;5073112;28;20386;-89
2021/08/08 22:46:33;;;;;;;21.65;13.35;;;27.00;73.80;;;;;;5057305;28;20067;-89
2021/08/08 22:48:59;;;;;;;22.05;14.30;;;27.00;73.90;;;;;;5064345;28;20107;-89
2021/08/08 22:51:25;;;;;;;19.63;14.10;;;27.00;74.10;;;;;;5077450;28;20074;-87
2021/08/08 22:53:51;;;;;;;21.60;15.07;;;27.00;74.00;;;;;;5074158;28;20047;-92
2021/08/08 22:56:17;;;;;;;22.08;14.32;;;27.00;73.90;;;;;;5080743;28;20021;-90
2021/08/08 23:06:48;;;;;;;18.38;11.75;;;26.80;74.40;;;;;;5373976;22;20065;-90
2021/08/08 23:12:11;;;;;;;15.73;11.38;;;26.80;74.70;;;;;;4967137;28;20089;-90
2021/08/08 23:14:37;;;;;;;13.70;11.18;;;26.80;74.50;;;;;;4955793;28;20492;-90
2021/08/08 23:17:04;;;;;;;17.95;11.63;;;26.70;74.50;;;;;;4956577;28;20046;-90
2021/08/08 23:19:30;;;;;;;24.75;12.52;;;26.70;74.50;;;;;;4961447;28;20043;-90
2021/08/08 23:21:56;;;;;;;17.67;11.48;;;26.60;74.60;;;;;;4953646;29;20035;-87
2021/08/08 23:24:23;;;;;;;17.65;11.40;;;26.60;74.70;;;;;;4954059;28;20049;-88
2021/08/08 23:26:49;;;;;;;21.27;12.80;;;26.60;74.80;;;;;;4954329;29;20114;-88
2021/08/08 23:29:14;;;;;;;30.30;15.18;;;26.60;74.70;;;;;;4954475;28;20051;-87
2021/08/08 23:31:41;;;;;;;29.35;14.70;;;26.60;74.50;;;;;;4954817;28;20035;-88
2021/08/08 23:34:06;;;;;;;18.92;13.73;;;26.50;74.40;;;;;;4955285;28;20039;-89
2021/08/08 23:36:33;;;;;;;18.60;12.40;;;26.50;74.60;;;;;;4954872;28;20051;-90
2021/08/08 23:38:59;;;;;;;22.98;12.40;;;26.50;74.70;;;;;;4956876;28;20046;-92
2021/08/08 23:41:24;;;;;;;26.77;14.05;;;26.40;74.80;;;;;;4960424;28;20470;-94
2021/08/08 23:43:50;;;;;;;22.88;12.93;;;26.50;75.00;;;;;;4959857;28;20039;-94
2021/08/08 23:46:16;;;;;;;20.70;13.40;;;26.50;74.90;;;;;;4959171;29;20049;-92
2021/08/08 23:48:42;;;;;;;19.55;11.50;;;26.50;74.80;;;;;;4957841;29;20451;-88
2021/08/08 23:51:08;;;;;;;18.65;12.27;;;26.40;74.70;;;;;;4954279;28;20561;-88
2021/08/08 23:53:34;;;;;;;18.10;12.68;;;26.40;74.70;;;;;;4954263;28;20455;-88
2021/08/08 23:56:00;;;;;;;14.77;11.73;;;26.30;74.70;;;;;;4952785;29;20039;-87
2021/08/08 23:58:26;;;;;;;19.40;11.77;;;26.30;74.80;;;;;;4953790;28;20055;-89
